createdAt,value
2023-07-16T00:01:55.682Z,99845.41
2023-07-16T00:04:23.727Z,99848.16
2023-07-16T00:06:51.784Z,99828.31
2023-07-16T00:09:19.744Z,99852.00
2023-07-16T00:11:47.735Z,99850.88
2023-07-16T00:14:17.100Z,99844.28
2023-07-16T00:16:45.117Z,99846.38
2023-07-16T00:19:13.447Z,99856.84
2023-07-16T00:21:41.386Z,99844.41
2023-07-16T00:24:09.361Z,99843.63
2023-07-16T00:26:37.290Z,99845.78
2023-07-16T00:29:05.254Z,99846.84
2023-07-16T00:31:34.982Z,99846.78
2023-07-16T00:34:02.945Z,99839.09
2023-07-16T00:36:30.916Z,99840.50
2023-07-16T00:38:58.902Z,99836.88
2023-07-16T00:41:26.931Z,99839.03
2023-07-16T00:43:56.164Z,99834.63
2023-07-16T00:46:24.299Z,99842.88
2023-07-16T00:48:53.633Z,99839.59
2023-07-16T00:51:21.598Z,99835.72
2023-07-16T00:53:49.579Z,99840.69
2023-07-16T00:56:18.685Z,99830.75
2023-07-16T00:58:46.959Z,99827.16
2023-07-16T01:01:15.071Z,99824.16
2023-07-16T01:03:43.078Z,99821.41
2023-07-16T01:06:15.852Z,99828.22
2023-07-16T01:08:45.154Z,99807.56
2023-07-16T01:11:13.134Z,99828.47
2023-07-16T01:13:41.180Z,99818.59
2023-07-16T01:16:09.191Z,99821.84
2023-07-16T01:18:37.217Z,99825.69
2023-07-16T01:21:05.332Z,99815.41
2023-07-16T01:23:53.134Z,99826.63
2023-07-16T01:26:38.176Z,99813.16
2023-07-16T01:29:31.214Z,99821.06
2023-07-16T01:31:59.227Z,99821.56
2023-07-16T01:34:27.407Z,99812.91
2023-07-16T01:36:55.495Z,99815.13
2023-07-16T01:39:23.564Z,99808.22
2023-07-16T01:41:51.536Z,99811.78
2023-07-16T01:44:19.513Z,99819.19
2023-07-16T01:46:50.042Z,99807.91
2023-07-16T01:49:18.059Z,99812.34
2023-07-16T01:51:46.055Z,99818.06
2023-07-16T01:54:14.084Z,99804.91
2023-07-16T01:56:42.047Z,99812.88
2023-07-16T01:59:10.041Z,99817.22
2023-07-16T02:01:38.135Z,99821.88
2023-07-16T02:04:07.533Z,99817.22
2023-07-16T02:06:35.522Z,99817.75
2023-07-16T02:09:03.580Z,99815.53
2023-07-16T02:11:31.590Z,99819.94
2023-07-16T02:13:59.522Z,99816.63
2023-07-16T02:16:27.548Z,99812.22
2023-07-16T02:18:55.638Z,99812.81
2023-07-16T02:21:24.965Z,99816.56
2023-07-16T02:23:52.960Z,99816.31
2023-07-16T02:26:21.105Z,99816.03
2023-07-16T02:28:49.117Z,99817.06
2023-07-16T02:31:17.177Z,99817.56
2023-07-16T02:33:45.217Z,99815.38
2023-07-16T02:36:13.655Z,99818.13
2023-07-16T02:38:43.174Z,99821.94
2023-07-16T02:41:11.140Z,99817.78
2023-07-16T02:43:39.214Z,99821.34
2023-07-16T02:46:07.161Z,99823.00
2023-07-16T02:48:35.140Z,99824.06
2023-07-16T02:51:03.113Z,99823.00
2023-07-16T02:53:31.074Z,99823.50
2023-07-16T02:56:00.386Z,99823.81
2023-07-16T02:58:28.385Z,99828.47
2023-07-16T03:00:56.446Z,99826.28
2023-07-16T03:03:24.496Z,99830.63
2023-07-16T03:05:52.461Z,99822.41
2023-07-16T03:08:20.970Z,99829.09
2023-07-16T03:10:48.985Z,99831.56
2023-07-16T03:13:18.319Z,99821.94
2023-07-16T03:15:46.332Z,99836.31
2023-07-16T03:18:14.318Z,99834.66
2023-07-16T03:20:42.257Z,99842.09
2023-07-16T03:23:10.331Z,99839.69
2023-07-16T03:25:38.397Z,99835.94
2023-07-16T03:28:06.333Z,99833.78
2023-07-16T03:30:35.711Z,99841.78
2023-07-16T03:33:03.715Z,99838.88
2023-07-16T03:35:31.654Z,99835.63
2023-07-16T03:37:59.580Z,99836.53
2023-07-16T03:40:28.166Z,99848.69
2023-07-16T03:42:56.234Z,99845.69
2023-07-16T03:45:24.324Z,99840.75
2023-07-16T03:47:53.791Z,99852.69
2023-07-16T03:50:21.865Z,99848.94
2023-07-16T03:52:49.861Z,99851.47
2023-07-16T03:55:17.944Z,99846.56
2023-07-16T03:57:45.912Z,99847.72
2023-07-16T04:00:14.075Z,99848.63
2023-07-16T04:02:42.289Z,99850.84
2023-07-16T04:05:12.335Z,99849.75
2023-07-16T04:07:40.313Z,99840.09
2023-07-16T04:10:09.441Z,99856.09
2023-07-16T04:12:37.384Z,99859.38
2023-07-16T04:15:09.731Z,99856.88
2023-07-16T04:17:37.778Z,99855.75
2023-07-16T04:20:07.623Z,99859.81
2023-07-16T04:22:37.372Z,99858.47
2023-07-16T04:25:05.958Z,99871.03
2023-07-16T04:27:33.920Z,99876.81
2023-07-16T04:30:01.921Z,99884.50
2023-07-16T04:32:29.992Z,99872.69
2023-07-16T04:34:58.040Z,99882.88
2023-07-16T04:37:26.018Z,99889.00
2023-07-16T04:39:55.409Z,99889.69
2023-07-16T04:42:23.392Z,99898.56
2023-07-16T04:44:51.392Z,99901.88
2023-07-16T04:47:19.432Z,99902.50
2023-07-16T04:49:47.497Z,99898.59
2023-07-16T04:52:15.478Z,99906.34
2023-07-16T04:54:43.472Z,99900.06
2023-07-16T04:57:12.830Z,99903.78
2023-07-16T04:59:40.796Z,99903.44
2023-07-16T05:02:09.009Z,99903.72
2023-07-16T05:04:37.180Z,99900.59
2023-07-16T05:07:05.261Z,99907.91
2023-07-16T05:09:33.269Z,99900.25
2023-07-16T05:12:01.415Z,99908.44
2023-07-16T05:14:30.773Z,99911.66
2023-07-16T05:16:58.836Z,99900.69
2023-07-16T05:19:26.822Z,99903.31
2023-07-16T05:21:54.758Z,99901.38
2023-07-16T05:24:22.708Z,99912.41
2023-07-16T05:26:51.308Z,99919.69
2023-07-16T05:29:19.253Z,99918.88
2023-07-16T05:31:48.995Z,99916.03
2023-07-16T05:34:17.011Z,99915.59
2023-07-16T05:36:45.441Z,99915.97
2023-07-16T05:39:13.994Z,99914.53
2023-07-16T05:41:42.313Z,99921.09
2023-07-16T05:44:10.617Z,99913.31
2023-07-16T05:46:38.579Z,99916.75
2023-07-16T05:49:07.946Z,99910.44
2023-07-16T05:51:35.917Z,99918.19
2023-07-16T05:54:04.297Z,99921.28
2023-07-16T05:56:32.290Z,99914.09
2023-07-16T05:59:00.332Z,99920.13
2023-07-16T06:01:28.448Z,99916.78
2023-07-16T06:03:56.505Z,99920.44
2023-07-16T06:06:25.909Z,99919.88
2023-07-16T06:08:53.905Z,99928.53
2023-07-16T06:11:21.931Z,99920.44
2023-07-16T06:13:49.923Z,99915.06
2023-07-16T06:16:18.297Z,99916.97
2023-07-16T06:18:46.560Z,99915.94
2023-07-16T06:21:14.581Z,99918.84
2023-07-16T06:23:44.581Z,99914.47
2023-07-16T06:26:12.600Z,99922.25
2023-07-16T06:28:40.579Z,99915.47
2023-07-16T06:31:08.731Z,99905.47
2023-07-16T06:33:36.740Z,99919.31
2023-07-16T06:36:05.026Z,99916.34
2023-07-16T06:38:32.998Z,99920.31
2023-07-16T06:41:02.320Z,99927.31
2023-07-16T06:43:30.328Z,99928.78
2023-07-16T06:45:58.317Z,99924.00
2023-07-16T06:48:26.337Z,99914.72
2023-07-16T06:50:54.277Z,99921.31
2023-07-16T06:53:22.458Z,99917.50
2023-07-16T06:55:50.521Z,99918.94
2023-07-16T06:58:19.866Z,99916.16
2023-07-16T07:00:47.857Z,99912.25
2023-07-16T07:03:15.880Z,99909.38
2023-07-16T07:05:43.995Z,99916.16
2023-07-16T07:08:12.009Z,99920.97
2023-07-16T07:10:40.904Z,99908.66
2023-07-16T07:13:08.960Z,99909.78
2023-07-16T07:15:38.513Z,99913.91
2023-07-16T07:18:06.640Z,99915.88
2023-07-16T07:20:34.613Z,99912.66
2023-07-16T07:23:04.414Z,99910.50
2023-07-16T07:25:32.413Z,99905.06
2023-07-16T07:28:00.399Z,99909.88
2023-07-16T07:30:28.369Z,99916.66
2023-07-16T07:32:58.117Z,99906.84
2023-07-16T07:35:26.248Z,99909.81
2023-07-16T07:37:54.259Z,99901.28
2023-07-16T07:40:22.458Z,99903.53
2023-07-16T07:42:50.415Z,99904.81
2023-07-16T07:45:18.641Z,99902.91
2023-07-16T07:47:46.656Z,99905.91
2023-07-16T07:50:16.051Z,99906.53
2023-07-16T07:52:44.033Z,99906.63
2023-07-16T07:55:12.131Z,99904.41
2023-07-16T07:57:40.149Z,99907.25
2023-07-16T08:00:12.915Z,99901.72
2023-07-16T08:02:41.149Z,99903.31
2023-07-16T08:05:10.179Z,99907.97
2023-07-16T08:07:39.686Z,99901.78
2023-07-16T08:10:08.332Z,99902.03
2023-07-16T08:12:36.373Z,99910.94
2023-07-16T08:15:04.839Z,99907.94
2023-07-16T08:17:32.947Z,99899.31
2023-07-16T08:20:01.150Z,99902.03
2023-07-16T08:22:29.332Z,99902.03
2023-07-16T08:24:58.749Z,99902.81
2023-07-16T08:27:26.792Z,99898.59
2023-07-16T08:29:54.801Z,99891.03
2023-07-16T08:32:23.246Z,99893.25
2023-07-16T08:34:51.465Z,99888.88
2023-07-16T08:37:19.431Z,99894.41
2023-07-16T08:39:47.375Z,99894.50
2023-07-16T08:42:16.756Z,99892.28
2023-07-16T08:44:45.366Z,99896.75
2023-07-16T08:47:13.409Z,99898.63
2023-07-16T08:49:41.426Z,99902.00
2023-07-16T08:52:10.105Z,99903.16
2023-07-16T08:54:38.107Z,99895.78
2023-07-16T08:57:06.793Z,99907.66
2023-07-16T08:59:36.138Z,99889.47
2023-07-16T09:02:05.061Z,99888.69
2023-07-16T09:04:33.250Z,99892.13
2023-07-16T09:07:01.353Z,99894.03
2023-07-16T09:09:29.378Z,99888.59
2023-07-16T09:11:57.346Z,99882.41
2023-07-16T09:14:25.795Z,99888.75
2023-07-16T09:16:55.276Z,99890.13
2023-07-16T09:19:23.405Z,99891.16
2023-07-16T09:21:51.480Z,99895.22
2023-07-16T09:24:21.522Z,99893.69
2023-07-16T09:26:50.927Z,99887.22
2023-07-16T09:29:19.054Z,99892.84
2023-07-16T09:31:58.584Z,99886.63
2023-07-16T09:34:28.696Z,99882.03
2023-07-16T09:36:57.003Z,99879.47
2023-07-16T09:39:25.487Z,99882.66
2023-07-16T09:41:53.503Z,99868.78
2023-07-16T09:44:21.571Z,99871.03
2023-07-16T09:46:49.709Z,99880.97
2023-07-16T09:49:19.204Z,99883.00
2023-07-16T09:51:47.471Z,99867.94
2023-07-16T09:54:16.196Z,99873.81
2023-07-16T09:56:46.530Z,99873.56
2023-07-16T09:59:16.820Z,99874.59
2023-07-16T10:01:45.058Z,99877.56
2023-07-16T10:04:18.169Z,99865.25
2023-07-16T10:06:55.821Z,99853.25
2023-07-16T10:09:36.850Z,99862.31
2023-07-16T10:12:15.525Z,99859.03
2023-07-16T10:14:44.446Z,99862.66
2023-07-16T10:17:18.795Z,99852.09
2023-07-16T10:19:53.517Z,99854.91
2023-07-16T10:22:33.448Z,99856.50
2023-07-16T10:25:01.821Z,99853.28
2023-07-16T10:27:30.794Z,99857.41
2023-07-16T10:29:58.778Z,99866.34
2023-07-16T10:32:28.974Z,99855.56
2023-07-16T10:34:57.044Z,99855.88
2023-07-16T10:37:26.474Z,99850.41
2023-07-16T10:39:55.237Z,99848.03
2023-07-16T10:42:23.484Z,99854.31
2023-07-16T10:44:53.095Z,99841.97
2023-07-16T10:47:22.789Z,99848.47
2023-07-16T10:49:51.193Z,99849.06
2023-07-16T10:52:19.143Z,99848.91
2023-07-16T10:54:48.526Z,99846.31
2023-07-16T10:57:17.378Z,99848.97
2023-07-16T10:59:46.235Z,99838.22
2023-07-16T11:02:15.185Z,99834.00
2023-07-16T11:04:43.469Z,99838.63
2023-07-16T11:07:12.667Z,99844.66
2023-07-16T11:09:45.042Z,99848.56
2023-07-16T11:12:15.280Z,99837.72
2023-07-16T11:14:45.702Z,99839.19
2023-07-16T11:17:13.727Z,99836.00
2023-07-16T11:19:43.078Z,99836.19
2023-07-16T11:22:12.648Z,99840.47
2023-07-16T11:24:41.117Z,99833.78
2023-07-16T11:27:16.117Z,99829.34
2023-07-16T11:29:47.733Z,99826.13
2023-07-16T11:32:16.441Z,99827.03
2023-07-16T11:34:56.946Z,99826.78
2023-07-16T11:37:26.402Z,99821.44
2023-07-16T11:39:57.492Z,99824.59
2023-07-16T11:42:30.400Z,99826.84
2023-07-16T11:44:58.456Z,99796.50
2023-07-16T11:47:26.718Z,99822.22
2023-07-16T11:49:54.984Z,99817.44
2023-07-16T11:52:23.494Z,99823.75
2023-07-16T11:54:51.494Z,99818.63
2023-07-16T11:57:19.449Z,99825.66
2023-07-16T11:59:48.893Z,99825.66
2023-07-16T12:02:16.904Z,99828.47
2023-07-16T12:04:44.939Z,99821.28
2023-07-16T12:07:12.949Z,99814.31
2023-07-16T12:09:41.019Z,99820.66
2023-07-16T12:12:09.422Z,99819.66
2023-07-16T12:14:37.626Z,99824.75
2023-07-16T12:17:07.357Z,99822.41
2023-07-16T12:19:35.358Z,99819.97
2023-07-16T12:22:03.380Z,99823.28
2023-07-16T12:24:31.329Z,99826.78
2023-07-16T12:26:59.344Z,99829.59
2023-07-16T12:29:27.371Z,99824.81
2023-07-16T12:31:55.425Z,99826.47
2023-07-16T12:34:24.805Z,99815.13
2023-07-16T12:36:52.830Z,99820.75
2023-07-16T12:39:21.129Z,99819.97
2023-07-16T12:41:49.133Z,99820.75
2023-07-16T12:44:17.076Z,99825.50
2023-07-16T12:46:45.109Z,99824.97
2023-07-16T12:49:13.086Z,99822.66
2023-07-16T12:51:42.404Z,99824.00
2023-07-16T12:54:10.406Z,99818.38
2023-07-16T12:56:38.348Z,99817.53
2023-07-16T12:59:06.364Z,99808.59
2023-07-16T13:01:34.437Z,99807.00
2023-07-16T13:04:02.523Z,99806.16
2023-07-16T13:06:30.591Z,99796.19
2023-07-16T13:09:00.383Z,99804.16
2023-07-16T13:11:28.428Z,99799.16
2023-07-16T13:13:56.362Z,99793.75
2023-07-16T13:16:24.357Z,99789.84
2023-07-16T13:18:52.404Z,99790.66
2023-07-16T13:21:20.383Z,99788.31
2023-07-16T13:23:48.384Z,99794.09
2023-07-16T13:26:18.072Z,99798.44
2023-07-16T13:28:46.203Z,99792.09
2023-07-16T13:31:14.273Z,99789.75
2023-07-16T13:33:42.284Z,99790.34
2023-07-16T13:36:10.277Z,99790.72
2023-07-16T13:38:38.225Z,99790.59
2023-07-16T13:41:06.333Z,99789.16
2023-07-16T13:43:35.697Z,99778.19
2023-07-16T13:46:04.419Z,99771.25
2023-07-16T13:48:40.502Z,99773.50
2023-07-16T13:51:16.240Z,99771.38
2023-07-16T13:53:44.265Z,99768.31
2023-07-16T13:56:12.502Z,99764.94
2023-07-16T13:58:41.984Z,99757.00
2023-07-16T14:01:09.981Z,99753.88
2023-07-16T14:03:38.091Z,99754.72
2023-07-16T14:06:06.233Z,99754.22
2023-07-16T14:08:35.230Z,99758.44
2023-07-16T14:11:03.896Z,99745.03
2023-07-16T14:13:31.909Z,99750.06
2023-07-16T14:16:01.290Z,99747.09
2023-07-16T14:18:29.260Z,99744.94
2023-07-16T14:20:57.232Z,99739.69
2023-07-16T14:23:25.228Z,99745.53
2023-07-16T14:25:53.198Z,99745.06
2023-07-16T14:28:21.301Z,99744.84
2023-07-16T14:30:49.479Z,99739.03
2023-07-16T14:33:18.827Z,99734.81
2023-07-16T14:35:46.896Z,99739.91
2023-07-16T14:38:14.855Z,99746.66
2023-07-16T14:40:43.301Z,99745.50
2023-07-16T14:43:11.449Z,99741.03
2023-07-16T14:45:39.794Z,99736.25
2023-07-16T14:48:08.201Z,99737.78
2023-07-16T14:50:37.569Z,99741.16
2023-07-16T14:53:06.464Z,99732.34
2023-07-16T14:55:34.458Z,99738.69
2023-07-16T14:58:03.600Z,99737.63
2023-07-16T15:00:31.646Z,99731.66
2023-07-16T15:03:00.000Z,99736.84
2023-07-16T15:05:28.123Z,99726.72
2023-07-16T15:07:57.487Z,99730.66
2023-07-16T15:10:26.583Z,99733.00
2023-07-16T15:12:54.563Z,99725.06
2023-07-16T15:15:22.574Z,99725.38
2023-07-16T15:17:50.627Z,99723.19
2023-07-16T15:20:18.810Z,99722.91
2023-07-16T15:22:47.650Z,99726.59
2023-07-16T15:25:17.086Z,99722.66
2023-07-16T15:27:45.079Z,99717.19
2023-07-16T15:30:14.285Z,99715.44
2023-07-16T15:32:42.337Z,99720.28
2023-07-16T15:35:10.625Z,99723.97
2023-07-16T15:37:38.638Z,99720.53
2023-07-16T15:40:16.960Z,99724.69
2023-07-16T15:42:44.956Z,99717.69
2023-07-16T15:45:14.075Z,99720.66
2023-07-16T15:47:42.178Z,99721.31
2023-07-16T15:50:11.236Z,99715.06
2023-07-16T15:52:39.201Z,99726.88
2023-07-16T15:55:07.867Z,99725.94
2023-07-16T15:57:37.210Z,99722.72
2023-07-16T16:00:09.974Z,99719.72
2023-07-16T16:02:38.096Z,99722.72
2023-07-16T16:05:07.302Z,99729.66
2023-07-16T16:07:35.367Z,99718.66
2023-07-16T16:10:03.986Z,99724.56
2023-07-16T16:12:31.991Z,99721.81
2023-07-16T16:15:01.332Z,99713.66
2023-07-16T16:17:29.327Z,99722.03
2023-07-16T16:19:57.306Z,99716.63
2023-07-16T16:22:25.302Z,99725.47
2023-07-16T16:24:53.320Z,99724.50
2023-07-16T16:27:21.271Z,99719.59
2023-07-16T16:29:49.231Z,99711.41
2023-07-16T16:32:18.571Z,99713.06
2023-07-16T16:34:46.566Z,99724.69
2023-07-16T16:37:14.545Z,99720.94
2023-07-16T16:39:42.578Z,99715.88
2023-07-16T16:42:10.528Z,99728.47
2023-07-16T16:44:38.462Z,99724.88
2023-07-16T16:47:07.202Z,99723.72
2023-07-16T16:49:36.612Z,99728.63
2023-07-16T16:52:04.714Z,99725.38
2023-07-16T16:54:33.205Z,99727.97
2023-07-16T16:57:01.266Z,99724.69
2023-07-16T16:59:33.895Z,99718.47
2023-07-16T17:02:01.889Z,99719.59
2023-07-16T17:04:30.165Z,99733.66
2023-07-16T17:07:00.193Z,99733.13
2023-07-16T17:09:28.749Z,99731.97
2023-07-16T17:11:56.883Z,99732.09
2023-07-16T17:14:24.822Z,99734.34
2023-07-16T17:16:52.833Z,99726.63
2023-07-16T17:19:20.832Z,99731.84
2023-07-16T17:21:48.927Z,99725.28
2023-07-16T17:24:18.253Z,99727.19
2023-07-16T17:26:46.245Z,99725.81
2023-07-16T17:29:14.226Z,99726.91
2023-07-16T17:31:42.205Z,99729.47
2023-07-16T17:34:10.178Z,99734.47
2023-07-16T17:36:38.128Z,99726.88
2023-07-16T17:39:06.644Z,99728.78
2023-07-16T17:41:36.127Z,99726.78
2023-07-16T17:44:04.753Z,99727.63
2023-07-16T17:46:32.785Z,99735.53
2023-07-16T17:49:01.698Z,99734.25
2023-07-16T17:51:29.727Z,99732.75
2023-07-16T17:53:57.688Z,99734.31
2023-07-16T17:56:25.733Z,99730.81
2023-07-16T17:58:55.080Z,99732.69
2023-07-16T18:01:23.109Z,99733.94
2023-07-16T18:03:51.253Z,99730.84
2023-07-16T18:06:19.644Z,99737.09
2023-07-16T18:08:48.035Z,99740.72
2023-07-16T18:11:16.041Z,99747.28
2023-07-16T18:13:44.059Z,99739.06
2023-07-16T18:16:13.568Z,99748.91
2023-07-16T18:18:41.609Z,99750.22
2023-07-16T18:21:14.181Z,99749.88
2023-07-16T18:23:53.780Z,99753.44
2023-07-16T18:26:24.218Z,99751.28
2023-07-16T18:28:52.690Z,99759.22
2023-07-16T18:31:22.590Z,99761.38
2023-07-16T18:33:54.006Z,99748.59
2023-07-16T18:36:22.125Z,99754.53
2023-07-16T18:38:50.154Z,99759.44
2023-07-16T18:41:18.233Z,99769.69
2023-07-16T18:43:46.586Z,99761.81
2023-07-16T18:46:14.832Z,99764.72
2023-07-16T18:48:44.338Z,99768.63
2023-07-16T18:51:12.333Z,99766.56
2023-07-16T18:53:40.331Z,99761.03
2023-07-16T18:56:08.294Z,99766.66
2023-07-16T18:58:36.298Z,99771.28
2023-07-16T19:01:04.399Z,99780.28
2023-07-16T19:03:32.405Z,99789.75
2023-07-16T19:06:02.899Z,99792.91
2023-07-16T19:08:30.967Z,99795.38
2023-07-16T19:10:58.911Z,99789.00
2023-07-16T19:13:27.088Z,99790.81
2023-07-16T19:15:55.082Z,99785.50
2023-07-16T19:18:23.167Z,99784.66
2023-07-16T19:20:51.176Z,99780.69
2023-07-16T19:23:20.693Z,99789.53
2023-07-16T19:25:48.840Z,99791.16
2023-07-16T19:28:18.038Z,99789.97
2023-07-16T19:30:47.389Z,99785.34
2023-07-16T19:33:15.435Z,99787.75
2023-07-16T19:35:43.408Z,99788.34
2023-07-16T19:38:11.454Z,99795.63
2023-07-16T19:40:42.967Z,99791.28
2023-07-16T19:43:10.974Z,99790.75
2023-07-16T19:45:40.629Z,99799.28
2023-07-16T19:48:08.936Z,99790.38
2023-07-16T19:50:37.251Z,99795.69
2023-07-16T19:53:05.375Z,99804.56
2023-07-16T19:55:37.645Z,99800.44
2023-07-16T19:58:07.100Z,99810.47
2023-07-16T20:00:35.337Z,99803.63
2023-07-16T20:03:06.322Z,99796.47
2023-07-16T20:05:37.912Z,99799.25
2023-07-16T20:08:06.257Z,99805.41
2023-07-16T20:10:34.361Z,99802.66
2023-07-16T20:13:02.365Z,99809.34
2023-07-16T20:15:31.757Z,99804.38
2023-07-16T20:17:59.808Z,99811.09
2023-07-16T20:20:27.847Z,99809.44
2023-07-16T20:22:57.375Z,99812.22
2023-07-16T20:25:25.428Z,99813.84
2023-07-16T20:27:55.943Z,99811.09
2023-07-16T20:30:24.390Z,99812.19
2023-07-16T20:32:55.799Z,99808.91
2023-07-16T20:35:24.040Z,99818.28
2023-07-16T20:37:52.106Z,99813.94
2023-07-16T20:40:20.327Z,99816.72
2023-07-16T20:42:48.560Z,99817.28
2023-07-16T20:45:18.020Z,99818.44
2023-07-16T20:47:46.224Z,99815.13
2023-07-16T20:50:16.985Z,99818.53
2023-07-16T20:52:45.743Z,99819.09
2023-07-16T20:55:13.957Z,99810.84
2023-07-16T20:57:42.527Z,99818.59
2023-07-16T21:00:15.535Z,99814.22
2023-07-16T21:02:43.585Z,99815.38
2023-07-16T21:05:11.869Z,99817.28
2023-07-16T21:07:42.004Z,99802.53
2023-07-16T21:10:10.265Z,99809.13
2023-07-16T21:12:38.455Z,99804.66
2023-07-16T21:15:07.756Z,99804.63
2023-07-16T21:17:35.770Z,99817.28
2023-07-16T21:20:03.816Z,99813.41
2023-07-16T21:22:31.794Z,99820.03
2023-07-16T21:25:01.173Z,99825.84
2023-07-16T21:27:29.902Z,99820.66
2023-07-16T21:29:57.946Z,99823.75
2023-07-16T21:32:28.174Z,99817.91
2023-07-16T21:34:56.218Z,99825.63
2023-07-16T21:37:24.177Z,99824.53
2023-07-16T21:39:52.377Z,99821.22
2023-07-16T21:42:21.704Z,99822.38
2023-07-16T21:44:49.664Z,99827.44
2023-07-16T21:47:18.418Z,99833.50
2023-07-16T21:49:46.828Z,99832.19
2023-07-16T21:52:15.193Z,99828.06
2023-07-16T21:54:43.707Z,99839.13
2023-07-16T21:57:11.703Z,99842.69
2023-07-16T21:59:42.389Z,99835.31
2023-07-16T22:02:10.474Z,99843.03
2023-07-16T22:04:38.559Z,99838.13
2023-07-16T22:07:07.140Z,99834.31
2023-07-16T22:09:35.306Z,99828.28
2023-07-16T22:12:03.236Z,99839.31
2023-07-16T22:14:31.557Z,99843.16
2023-07-16T22:17:00.909Z,99851.47
2023-07-16T22:19:32.899Z,99845.44
2023-07-16T22:22:01.745Z,99841.63
2023-07-16T22:24:30.065Z,99848.22
2023-07-16T22:26:58.036Z,99852.16
2023-07-16T22:29:26.038Z,99839.47
2023-07-16T22:31:54.069Z,99844.44
2023-07-16T22:34:23.460Z,99839.50
2023-07-16T22:36:51.442Z,99840.59
2023-07-16T22:39:19.380Z,99845.28
2023-07-16T22:41:47.914Z,99845.00
2023-07-16T22:44:15.875Z,99844.72
2023-07-16T22:46:43.814Z,99831.81
2023-07-16T22:49:11.786Z,99839.25
2023-07-16T22:51:41.094Z,99835.06
2023-07-16T22:54:09.062Z,99839.44
2023-07-16T22:56:37.064Z,99832.81
2023-07-16T22:59:05.102Z,99831.66
2023-07-16T23:01:33.046Z,99836.91
2023-07-16T23:04:01.066Z,99833.31
2023-07-16T23:06:29.128Z,99833.31
2023-07-16T23:08:58.502Z,99834.44
2023-07-16T23:11:26.685Z,99830.59
2023-07-16T23:13:54.689Z,99833.00
2023-07-16T23:16:22.749Z,99829.91
2023-07-16T23:18:50.746Z,99827.66
2023-07-16T23:21:19.720Z,99788.69
2023-07-16T23:23:48.082Z,99838.78
2023-07-16T23:26:17.477Z,99831.06
2023-07-16T23:28:47.114Z,99829.41
2023-07-16T23:31:15.670Z,99823.41
2023-07-16T23:33:43.924Z,99831.31
2023-07-16T23:36:11.926Z,99830.19
2023-07-16T23:38:39.896Z,99835.44
2023-07-16T23:41:07.935Z,99834.00
2023-07-16T23:43:37.273Z,99829.78
2023-07-16T23:46:05.225Z,99830.56
2023-07-16T23:48:33.249Z,99834.50
2023-07-16T23:51:01.528Z,99826.56
2023-07-16T23:53:29.545Z,99828.59
2023-07-16T23:55:57.540Z,99827.81
2023-07-16T23:58:25.530Z,99824.00
